createdAt,value
2022-12-19T00:00:28.077Z,80.000000
2022-12-19T00:05:30.947Z,81.266667
2022-12-19T00:10:34.260Z,82.733333
2022-12-19T00:15:35.887Z,84.133333
2022-12-19T00:20:18.788Z,85.000000
2022-12-19T00:25:21.524Z,85.533333
2022-12-19T00:30:24.180Z,86.000000
2022-12-19T00:35:26.762Z,86.400000
2022-12-19T00:40:29.350Z,87.333333
2022-12-19T00:45:31.738Z,88.000000
2022-12-19T00:50:34.312Z,88.000000
2022-12-19T00:55:16.639Z,88.866667
2022-12-19T01:00:19.187Z,89.000000
2022-12-19T01:05:22.206Z,88.714286
2022-12-19T01:10:24.700Z,88.000000
2022-12-19T01:15:27.248Z,87.800000
2022-12-19T01:20:30.168Z,88.000000
2022-12-19T01:25:34.195Z,88.400000
2022-12-19T01:30:17.163Z,89.000000
2022-12-19T01:35:22.346Z,89.000000
2022-12-19T01:40:23.612Z,89.000000
2022-12-19T01:45:31.990Z,89.000000
2022-12-19T01:50:46.088Z,89.800000
2022-12-19T01:55:33.033Z,90.000000
2022-12-19T02:00:16.201Z,90.400000
2022-12-19T02:05:20.573Z,91.000000
2022-12-19T02:10:22.902Z,91.000000
2022-12-19T02:15:25.741Z,91.000000
2022-12-19T02:20:30.048Z,91.600000
2022-12-19T02:25:31.437Z,92.000000
2022-12-19T02:30:34.282Z,91.666667
2022-12-19T02:35:16.624Z,91.000000
2022-12-19T02:40:19.478Z,91.466667
2022-12-19T02:45:28.544Z,91.428571
2022-12-19T02:50:24.621Z,92.000000
2022-12-19T02:55:27.386Z,92.000000
2022-12-19T03:00:29.408Z,92.000000
2022-12-19T03:05:32.571Z,92.000000
2022-12-19T03:10:27.170Z,92.000000
2022-12-19T03:15:17.467Z,92.000000
2022-12-19T03:20:20.921Z,92.000000
2022-12-19T03:25:25.011Z,92.000000
2022-12-19T03:30:28.238Z,91.933333
2022-12-19T03:35:30.857Z,91.000000
2022-12-19T03:40:33.239Z,91.000000
2022-12-19T03:45:16.241Z,91.000000
2022-12-19T03:50:18.867Z,91.000000
2022-12-19T03:55:21.204Z,91.000000
2022-12-19T04:00:23.425Z,91.000000
2022-12-19T04:05:27.004Z,90.133333
2022-12-19T04:10:29.349Z,90.000000
2022-12-19T04:15:32.375Z,89.466667
2022-12-19T04:20:15.967Z,89.000000
2022-12-19T04:25:19.097Z,89.000000
2022-12-19T04:30:22.223Z,89.000000
2022-12-19T04:35:25.797Z,89.000000
2022-12-19T04:40:28.909Z,88.066667
2022-12-19T04:45:33.000Z,88.000000
2022-12-19T04:50:30.946Z,88.000000
2022-12-19T04:55:19.149Z,88.000000
2022-12-19T05:00:23.177Z,88.000000
2022-12-19T05:05:26.543Z,88.000000
2022-12-19T05:10:28.933Z,88.000000
2022-12-19T05:15:31.594Z,88.000000
2022-12-19T05:20:34.141Z,88.000000
2022-12-19T05:25:16.720Z,87.733333
2022-12-19T05:30:19.226Z,87.000000
2022-12-19T05:35:21.848Z,87.000000
2022-12-19T05:40:24.333Z,87.285714
2022-12-19T05:45:27.245Z,88.000000
2022-12-19T05:50:30.005Z,88.000000
2022-12-19T05:55:32.843Z,88.066667
2022-12-19T06:00:34.861Z,89.000000
2022-12-19T06:05:17.509Z,89.000000
2022-12-19T06:10:20.247Z,89.000000
2022-12-19T06:15:22.818Z,89.142857
2022-12-19T06:20:25.181Z,89.000000
2022-12-19T06:25:27.711Z,89.000000
2022-12-19T06:30:30.568Z,89.000000
2022-12-19T06:35:32.924Z,89.000000
2022-12-19T06:40:35.673Z,88.133333
2022-12-19T06:45:17.926Z,88.000000
2022-12-19T06:50:20.590Z,88.000000
2022-12-19T06:55:23.287Z,88.000000
2022-12-19T07:00:26.261Z,88.333333
2022-12-19T07:05:28.901Z,89.000000
2022-12-19T07:10:31.195Z,88.266667
2022-12-19T07:15:33.434Z,88.000000
2022-12-19T07:20:16.030Z,88.000000
2022-12-19T07:25:18.687Z,88.000000
2022-12-19T07:30:21.134Z,88.000000
2022-12-19T07:35:24.074Z,88.428571
2022-12-19T07:40:26.425Z,89.000000
2022-12-19T07:45:28.972Z,89.000000
2022-12-19T07:50:31.183Z,89.933333
2022-12-19T07:55:33.595Z,90.000000
2022-12-19T08:00:36.137Z,90.000000
2022-12-19T08:05:19.081Z,90.000000
2022-12-19T08:10:22.331Z,89.800000
2022-12-19T08:15:23.650Z,89.000000
2022-12-19T08:20:26.022Z,89.000000
2022-12-19T08:25:28.926Z,89.000000
2022-12-19T08:30:31.373Z,89.000000
2022-12-19T08:35:34.186Z,89.000000
2022-12-19T08:40:16.235Z,89.000000
2022-12-19T08:45:18.792Z,89.000000
2022-12-19T08:50:21.161Z,89.000000
2022-12-19T08:55:23.509Z,89.000000
2022-12-19T09:00:26.116Z,88.733333
2022-12-19T09:06:05.189Z,88.000000
2022-12-19T09:10:31.651Z,88.000000
2022-12-19T09:15:34.175Z,87.266667
2022-12-19T09:20:22.837Z,86.933333
2022-12-19T09:25:19.463Z,86.000000
2022-12-19T09:30:21.905Z,86.000000
2022-12-19T09:35:30.080Z,86.000000
2022-12-19T09:40:29.599Z,86.000000
2022-12-19T09:45:31.841Z,86.933333
2022-12-19T09:50:32.783Z,87.000000
2022-12-19T09:55:35.814Z,87.000000
2022-12-19T10:00:18.156Z,87.000000
2022-12-19T10:05:53.105Z,87.000000
2022-12-19T10:07:11.069Z,87.000000
2022-12-19T10:12:36.120Z,87.428571
2022-12-19T10:12:37.820Z,87.428571
2022-12-19T10:12:45.021Z,87.428571
2022-12-19T10:15:25.680Z,87.000000
2022-12-19T10:20:28.298Z,87.666667
2022-12-19T10:25:30.657Z,88.000000
2022-12-19T10:30:33.323Z,88.000000
2022-12-19T10:35:35.670Z,88.000000
2022-12-19T10:40:28.017Z,88.000000
2022-12-19T10:45:20.519Z,88.533333
2022-12-19T10:50:23.279Z,89.000000
2022-12-19T10:55:25.529Z,89.000000
2022-12-19T11:00:27.833Z,89.000000
2022-12-19T11:05:30.382Z,89.200000
2022-12-19T11:11:15.509Z,89.933333
2022-12-19T11:15:08.317Z,89.933333
2022-12-19T11:15:39.591Z,89.933333
2022-12-19T11:20:51.284Z,89.866667
2022-12-19T11:21:31.152Z,89.866667
2022-12-19T11:28:58.422Z,89.866667
2022-12-19T11:29:30.188Z,89.000000
2022-12-19T11:29:35.182Z,89.000000
2022-12-19T11:29:47.275Z,88.000000
2022-12-19T11:30:08.652Z,89.000000
2022-12-19T11:30:38.461Z,88.000000
2022-12-19T11:30:38.847Z,88.000000
2022-12-19T11:32:14.263Z,87.571429
2022-12-19T11:32:35.872Z,87.571429
2022-12-19T11:35:37.022Z,87.000000
2022-12-19T11:40:28.686Z,87.000000
2022-12-19T11:45:31.249Z,86.800000
2022-12-19T11:50:33.593Z,86.000000
2022-12-19T11:55:16.157Z,85.266667
2022-12-19T12:00:18.632Z,85.000000
2022-12-19T12:05:21.565Z,85.000000
2022-12-19T12:16:42.475Z,85.000000
2022-12-19T12:18:02.388Z,85.000000
2022-12-19T12:20:26.051Z,85.000000
2022-12-19T12:28:10.701Z,85.000000
2022-12-19T12:29:35.382Z,85.000000
2022-12-19T12:30:53.567Z,85.000000
2022-12-19T12:31:04.170Z,84.600000
2022-12-19T12:31:07.375Z,84.600000
2022-12-19T12:31:39.938Z,84.600000
2022-12-19T12:31:43.407Z,84.000000
2022-12-19T12:31:44.726Z,84.000000
2022-12-19T12:31:46.585Z,84.000000
2022-12-19T12:31:52.918Z,84.000000
2022-12-19T12:35:10.978Z,84.000000
2022-12-19T12:37:51.093Z,84.466667
2022-12-19T12:38:13.685Z,84.466667
2022-12-19T12:40:19.744Z,85.000000
2022-12-19T12:45:22.605Z,85.000000
2022-12-19T12:50:25.371Z,85.000000
2022-12-19T12:55:27.385Z,85.000000
2022-12-19T13:00:30.157Z,85.000000
2022-12-19T13:05:33.015Z,85.800000
2022-12-19T13:10:35.431Z,86.000000
2022-12-19T13:15:18.008Z,86.466667
2022-12-19T13:20:20.856Z,87.000000
2022-12-19T13:25:24.539Z,87.928571
2022-12-19T13:30:26.451Z,87.133333
2022-12-19T13:36:57.353Z,87.000000
2022-12-19T13:39:48.889Z,87.000000
2022-12-19T13:39:59.029Z,87.000000
2022-12-19T13:40:33.172Z,87.000000
2022-12-19T13:45:33.979Z,87.000000
2022-12-19T13:50:17.212Z,87.000000
2022-12-19T13:55:19.789Z,87.000000
2022-12-19T14:00:22.620Z,87.000000
2022-12-19T14:05:36.042Z,87.000000
2022-12-19T14:11:36.547Z,87.000000
2022-12-19T14:12:10.498Z,87.000000
2022-12-19T14:13:40.015Z,87.000000
2022-12-19T14:15:31.273Z,87.000000
2022-12-19T14:22:06.238Z,87.000000
2022-12-19T14:22:07.749Z,87.000000
2022-12-19T14:28:14.330Z,87.000000
2022-12-19T14:28:19.582Z,87.000000
2022-12-19T14:28:20.710Z,87.000000
2022-12-19T14:30:29.330Z,87.000000
2022-12-19T14:36:08.841Z,87.000000
2022-12-19T14:40:23.462Z,87.000000
2022-12-19T14:52:25.145Z,87.000000
2022-12-19T14:53:17.516Z,87.000000
2022-12-19T14:54:02.163Z,87.000000
2022-12-19T14:54:15.012Z,87.000000
2022-12-19T14:54:20.955Z,87.000000
2022-12-19T14:54:32.372Z,87.000000
2022-12-19T14:56:19.650Z,87.000000
2022-12-19T15:01:08.310Z,87.000000
2022-12-19T15:05:35.993Z,87.133333
2022-12-19T15:11:07.707Z,87.333333
2022-12-19T15:15:20.989Z,88.000000
2022-12-19T15:20:23.663Z,88.000000
2022-12-19T15:26:02.042Z,88.000000
2022-12-19T15:30:29.392Z,88.000000
2022-12-19T15:35:31.833Z,88.000000
2022-12-19T15:40:34.744Z,87.333333
2022-12-19T15:45:16.480Z,87.666667
2022-12-19T15:50:19.082Z,88.066667
2022-12-19T15:55:21.755Z,89.000000
2022-12-19T16:00:24.459Z,89.285714
2022-12-19T16:05:27.108Z,90.000000
2022-12-19T16:10:29.475Z,89.933333
2022-12-19T16:15:32.085Z,89.000000
2022-12-19T16:20:34.579Z,89.000000
2022-12-19T16:25:16.523Z,88.400000
2022-12-19T16:30:19.261Z,88.000000
2022-12-19T16:35:40.121Z,87.400000
2022-12-19T16:40:24.655Z,87.357143
2022-12-19T16:45:27.427Z,84.400000
2022-12-19T16:50:30.100Z,84.000000
2022-12-19T18:35:37.211Z,83.000000
2022-12-19T18:40:23.257Z,82.266667
2022-12-19T18:45:20.363Z,82.000000
2022-12-19T18:50:23.815Z,81.500000
2022-12-19T18:55:26.003Z,81.066667
2022-12-19T19:00:28.779Z,81.000000
2022-12-19T19:05:31.130Z,80.533333
2022-12-19T19:10:33.988Z,81.733333
2022-12-19T19:15:36.015Z,82.333333
2022-12-19T19:20:17.944Z,81.666667
2022-12-19T19:25:20.063Z,81.666667
2022-12-19T19:30:22.137Z,80.214286
2022-12-19T19:35:24.821Z,79.933333
2022-12-19T19:40:27.461Z,79.333333
2022-12-19T19:45:29.814Z,79.666667
2022-12-19T19:50:31.908Z,80.000000
2022-12-19T19:55:34.419Z,80.666667
2022-12-19T20:00:16.444Z,80.800000
2022-12-19T20:05:18.816Z,80.333333
2022-12-19T20:10:21.640Z,80.533333
2022-12-19T20:15:23.885Z,80.500000
2022-12-19T20:20:26.436Z,80.200000
2022-12-19T20:25:28.689Z,79.333333
2022-12-19T20:30:31.149Z,79.666667
2022-12-19T20:35:34.100Z,79.000000
2022-12-19T20:40:36.298Z,79.133333
2022-12-19T20:45:17.932Z,79.333333
2022-12-19T20:50:20.671Z,79.466667
2022-12-19T20:55:23.773Z,79.071429
2022-12-19T21:00:25.934Z,78.866667
2022-12-19T21:05:28.303Z,78.733333
2022-12-19T21:10:30.564Z,78.733333
2022-12-19T21:15:32.694Z,79.133333
2022-12-19T21:20:34.763Z,78.533333
2022-12-19T21:25:16.877Z,76.933333
2022-12-19T21:30:19.256Z,77.866667
2022-12-19T21:35:21.494Z,77.866667
2022-12-19T21:40:23.600Z,76.428571
2022-12-19T21:45:26.053Z,76.800000
2022-12-19T21:50:27.964Z,76.266667
2022-12-19T21:55:30.293Z,75.466667
2022-12-19T22:00:32.825Z,76.200000
2022-12-19T22:05:34.727Z,76.800000
2022-12-19T22:10:17.877Z,75.066667
2022-12-19T22:15:19.077Z,75.333333
2022-12-19T22:20:21.131Z,75.214286
2022-12-19T22:25:23.414Z,74.733333
2022-12-19T22:30:25.781Z,74.333333
2022-12-19T22:35:28.072Z,74.666667
2022-12-19T22:40:30.475Z,74.600000
2022-12-19T22:45:33.052Z,74.333333
2022-12-19T22:50:35.144Z,75.933333
2022-12-19T22:55:17.114Z,75.666667
2022-12-19T23:00:20.670Z,75.400000
2022-12-19T23:05:21.857Z,74.666667
2022-12-19T23:10:24.287Z,74.571429
2022-12-19T23:15:27.007Z,74.266667
2022-12-19T23:20:29.578Z,75.000000
2022-12-19T23:25:32.942Z,75.666667
2022-12-19T23:30:35.137Z,77.000000
2022-12-19T23:35:16.024Z,78.933333
2022-12-19T23:40:18.225Z,80.600000
2022-12-19T23:45:20.357Z,81.800000
2022-12-19T23:50:23.451Z,82.714286
2022-12-19T23:55:25.461Z,83.666667
